GOV weather

Grayling Army Air Field
Grayling, Michigan, United States

Public forecast

Using degrees Fahrenheit for public forecast. Weather courtesy of forecast.io.

METAR (pilot weather report)

Retrieved 2019/06/20 13:58 UTC (42 minutes ago):

KGOV 201358Z AUTO 04007KT 10SM SCT160 16/13 A2972 RMK AO2 SLP069 T01560132 $

TAF (pilot weather forecast)

Closest forecast is Cherry Capital Airport, 36.6 nm (67.8 km) W. Retrieved 2019/06/20 12:22 UTC (2 hours ago):

TAF KTVC 201120Z 2012/2112 VRB04KT P6SM SCT090 OVC150 FM201400 04006KT P6SM BKN200 FM201900 03010G18KT P6SM BKN200 FM210000 36006KT P6SM SCT250 FM210200 VRB04KT P6SM SCT250